sensor_id;sensor_type;location;lat;lon;timestamp;P1;durP1;ratioP1;P2;durP2;ratioP2
34535;SDS011;20779;55.596;37.538;2022-07-29T00:00:12;5.47;;;2.10;;
34535;SDS011;20779;55.596;37.538;2022-07-29T00:02:39;4.03;;;2.20;;
34535;SDS011;20779;55.596;37.538;2022-07-29T00:05:06;7.18;;;2.08;;
34535;SDS011;20779;55.596;37.538;2022-07-29T00:07:35;4.47;;;2.17;;
34535;SDS011;20779;55.596;37.538;2022-07-29T00:10:01;5.75;;;1.90;;
34535;SDS011;20779;55.596;37.538;2022-07-29T00:12:29;4.80;;;2.08;;
34535;SDS011;20779;55.596;37.538;2022-07-29T00:14:55;4.75;;;2.53;;
34535;SDS011;20779;55.596;37.538;2022-07-29T00:17:23;3.80;;;2.20;;
34535;SDS011;20779;55.596;37.538;2022-07-29T00:19:50;2.67;;;2.10;;
34535;SDS011;20779;55.596;37.538;2022-07-29T00:22:16;3.15;;;2.50;;
34535;SDS011;20779;55.596;37.538;2022-07-29T00:24:43;3.95;;;2.08;;
34535;SDS011;20779;55.596;37.538;2022-07-29T00:27:09;4.15;;;2.03;;
34535;SDS011;20779;55.596;37.538;2022-07-29T00:29:36;4.53;;;2.40;;
34535;SDS011;20779;55.596;37.538;2022-07-29T00:32:02;6.40;;;2.88;;
34535;SDS011;20779;55.596;37.538;2022-07-29T00:34:29;5.07;;;2.50;;
34535;SDS011;20779;55.596;37.538;2022-07-29T00:37:14;3.75;;;2.40;;
34535;SDS011;20779;55.596;37.538;2022-07-29T00:39:41;4.28;;;2.90;;
34535;SDS011;20779;55.596;37.538;2022-07-29T00:42:07;6.40;;;3.08;;
34535;SDS011;20779;55.596;37.538;2022-07-29T00:44:38;7.90;;;3.50;;
34535;SDS011;20779;55.596;37.538;2022-07-29T00:47:05;6.03;;;3.70;;
34535;SDS011;20779;55.596;37.538;2022-07-29T00:49:34;6.30;;;3.33;;
34535;SDS011;20779;55.596;37.538;2022-07-29T00:52:06;4.35;;;3.13;;
34535;SDS011;20779;55.596;37.538;2022-07-29T00:54:34;4.65;;;3.30;;
34535;SDS011;20779;55.596;37.538;2022-07-29T00:57:01;3.70;;;3.30;;
34535;SDS011;20779;55.596;37.538;2022-07-29T00:59:27;6.30;;;3.38;;
34535;SDS011;20779;55.596;37.538;2022-07-29T01:01:54;6.85;;;3.47;;
34535;SDS011;20779;55.596;37.538;2022-07-29T01:04:21;6.63;;;3.50;;
34535;SDS011;20779;55.596;37.538;2022-07-29T01:06:48;4.85;;;3.70;;
34535;SDS011;20779;55.596;37.538;2022-07-29T01:09:15;7.60;;;3.50;;
34535;SDS011;20779;55.596;37.538;2022-07-29T01:11:43;5.57;;;4.00;;
34535;SDS011;20779;55.596;37.538;2022-07-29T01:14:11;5.53;;;3.78;;
34535;SDS011;20779;55.596;37.538;2022-07-29T01:16:51;8.65;;;4.05;;
34535;SDS011;20779;55.596;37.538;2022-07-29T01:22:27;7.03;;;4.53;;
34535;SDS011;20779;55.596;37.538;2022-07-29T01:31:17;5.72;;;4.57;;
34535;SDS011;20779;55.596;37.538;2022-07-29T01:33:50;7.80;;;4.75;;
34535;SDS011;20779;55.596;37.538;2022-07-29T01:36:27;7.53;;;4.70;;
34535;SDS011;20779;55.596;37.538;2022-07-29T01:39:10;7.85;;;5.68;;
34535;SDS011;20779;55.596;37.538;2022-07-29T01:41:49;6.47;;;5.40;;
34535;SDS011;20779;55.596;37.538;2022-07-29T01:46:58;7.35;;;6.50;;
34535;SDS011;20779;55.596;37.538;2022-07-29T01:49:38;7.28;;;6.68;;
34535;SDS011;20779;55.596;37.538;2022-07-29T01:52:23;8.95;;;6.97;;
34535;SDS011;20779;55.596;37.538;2022-07-29T01:54:57;10.90;;;7.57;;
34535;SDS011;20779;55.596;37.538;2022-07-29T01:57:30;7.95;;;7.10;;
34535;SDS011;20779;55.596;37.538;2022-07-29T01:59:59;7.63;;;7.03;;
34535;SDS011;20779;55.596;37.538;2022-07-29T02:02:37;8.50;;;7.80;;
34535;SDS011;20779;55.596;37.538;2022-07-29T02:05:07;8.50;;;7.45;;
34535;SDS011;20779;55.596;37.538;2022-07-29T02:07:39;8.25;;;7.45;;
34535;SDS011;20779;55.596;37.538;2022-07-29T02:10:07;10.07;;;7.90;;
34535;SDS011;20779;55.596;37.538;2022-07-29T02:12:37;8.98;;;7.50;;
34535;SDS011;20779;55.596;37.538;2022-07-29T02:15:25;9.10;;;7.57;;
34535;SDS011;20779;55.596;37.538;2022-07-29T02:17:55;9.75;;;7.72;;
34535;SDS011;20779;55.596;37.538;2022-07-29T02:20:49;9.48;;;7.07;;
34535;SDS011;20779;55.596;37.538;2022-07-29T02:23:20;8.45;;;7.10;;
34535;SDS011;20779;55.596;37.538;2022-07-29T02:25:49;7.78;;;6.38;;
34535;SDS011;20779;55.596;37.538;2022-07-29T02:28:19;9.80;;;6.28;;
34535;SDS011;20779;55.596;37.538;2022-07-29T02:30:47;8.93;;;5.50;;
34535;SDS011;20779;55.596;37.538;2022-07-29T02:33:18;10.38;;;4.38;;
34535;SDS011;20779;55.596;37.538;2022-07-29T02:35:46;3.90;;;2.90;;
34535;SDS011;20779;55.596;37.538;2022-07-29T02:38:14;7.38;;;2.65;;
34535;SDS011;20779;55.596;37.538;2022-07-29T02:41:04;4.28;;;2.40;;
34535;SDS011;20779;55.596;37.538;2022-07-29T02:43:36;4.47;;;1.98;;
34535;SDS011;20779;55.596;37.538;2022-07-29T02:46:04;2.28;;;1.95;;
34535;SDS011;20779;55.596;37.538;2022-07-29T02:48:37;6.40;;;1.63;;
34535;SDS011;20779;55.596;37.538;2022-07-29T02:51:36;4.10;;;2.10;;
34535;SDS011;20779;55.596;37.538;2022-07-29T02:54:09;4.10;;;1.80;;
34535;SDS011;20779;55.596;37.538;2022-07-29T02:56:41;4.70;;;1.50;;
34535;SDS011;20779;55.596;37.538;2022-07-29T02:59:10;3.75;;;1.80;;
34535;SDS011;20779;55.596;37.538;2022-07-29T03:01:39;7.00;;;1.75;;
34535;SDS011;20779;55.596;37.538;2022-07-29T03:04:08;3.58;;;1.30;;
34535;SDS011;20779;55.596;37.538;2022-07-29T03:06:36;6.65;;;1.60;;
34535;SDS011;20779;55.596;37.538;2022-07-29T03:09:06;3.38;;;1.60;;
34535;SDS011;20779;55.596;37.538;2022-07-29T03:11:33;3.83;;;1.40;;
34535;SDS011;20779;55.596;37.538;2022-07-29T03:14:00;5.22;;;1.98;;
34535;SDS011;20779;55.596;37.538;2022-07-29T03:16:28;3.45;;;1.65;;
34535;SDS011;20779;55.596;37.538;2022-07-29T03:18:54;6.30;;;2.03;;
34535;SDS011;20779;55.596;37.538;2022-07-29T03:21:21;3.88;;;1.80;;
34535;SDS011;20779;55.596;37.538;2022-07-29T03:23:47;5.68;;;1.70;;
34535;SDS011;20779;55.596;37.538;2022-07-29T03:26:14;3.83;;;1.45;;
34535;SDS011;20779;55.596;37.538;2022-07-29T03:28:40;5.03;;;1.30;;
34535;SDS011;20779;55.596;37.538;2022-07-29T03:31:07;1.95;;;1.10;;
34535;SDS011;20779;55.596;37.538;2022-07-29T03:33:33;4.78;;;1.20;;
34535;SDS011;20779;55.596;37.538;2022-07-29T03:36:00;5.22;;;1.33;;
34535;SDS011;20779;55.596;37.538;2022-07-29T03:38:27;3.60;;;1.52;;
34535;SDS011;20779;55.596;37.538;2022-07-29T03:40:57;4.85;;;1.25;;
34535;SDS011;20779;55.596;37.538;2022-07-29T03:43:30;4.05;;;1.40;;
34535;SDS011;20779;55.596;37.538;2022-07-29T03:46:00;1.85;;;1.00;;
34535;SDS011;20779;55.596;37.538;2022-07-29T03:48:30;7.20;;;1.48;;
34535;SDS011;20779;55.596;37.538;2022-07-29T03:50:58;5.72;;;1.67;;
34535;SDS011;20779;55.596;37.538;2022-07-29T03:53:25;3.22;;;1.20;;
34535;SDS011;20779;55.596;37.538;2022-07-29T03:55:52;3.28;;;1.40;;
34535;SDS011;20779;55.596;37.538;2022-07-29T03:58:22;6.13;;;1.40;;
34535;SDS011;20779;55.596;37.538;2022-07-29T04:00:51;4.45;;;1.50;;
34535;SDS011;20779;55.596;37.538;2022-07-29T04:03:20;6.50;;;1.73;;
34535;SDS011;20779;55.596;37.538;2022-07-29T04:06:03;4.25;;;1.30;;
34535;SDS011;20779;55.596;37.538;2022-07-29T04:08:34;4.20;;;1.50;;
34535;SDS011;20779;55.596;37.538;2022-07-29T04:11:01;3.85;;;1.10;;
34535;SDS011;20779;55.596;37.538;2022-07-29T04:13:28;4.13;;;1.35;;
34535;SDS011;20779;55.596;37.538;2022-07-29T04:15:55;4.05;;;1.15;;
34535;SDS011;20779;55.596;37.538;2022-07-29T04:18:22;2.88;;;1.05;;
34535;SDS011;20779;55.596;37.538;2022-07-29T04:20:48;6.78;;;1.45;;
34535;SDS011;20779;55.596;37.538;2022-07-29T04:23:14;4.60;;;1.50;;
34535;SDS011;20779;55.596;37.538;2022-07-29T04:25:41;3.42;;;1.30;;
34535;SDS011;20779;55.596;37.538;2022-07-29T04:28:08;4.80;;;1.60;;
34535;SDS011;20779;55.596;37.538;2022-07-29T04:30:36;3.45;;;1.58;;
34535;SDS011;20779;55.596;37.538;2022-07-29T04:33:04;4.72;;;1.23;;
34535;SDS011;20779;55.596;37.538;2022-07-29T04:35:36;7.70;;;1.73;;
34535;SDS011;20779;55.596;37.538;2022-07-29T04:38:03;3.73;;;1.53;;
34535;SDS011;20779;55.596;37.538;2022-07-29T04:40:31;11.38;;;1.55;;
34535;SDS011;20779;55.596;37.538;2022-07-29T04:42:58;6.22;;;1.50;;
34535;SDS011;20779;55.596;37.538;2022-07-29T04:45:26;5.45;;;1.55;;
34535;SDS011;20779;55.596;37.538;2022-07-29T04:47:53;3.28;;;1.42;;
34535;SDS011;20779;55.596;37.538;2022-07-29T04:50:20;7.63;;;1.40;;
34535;SDS011;20779;55.596;37.538;2022-07-29T04:52:48;4.35;;;1.70;;
34535;SDS011;20779;55.596;37.538;2022-07-29T04:55:14;7.38;;;1.48;;
34535;SDS011;20779;55.596;37.538;2022-07-29T04:57:41;4.82;;;1.27;;
34535;SDS011;20779;55.596;37.538;2022-07-29T05:00:07;4.60;;;1.40;;
34535;SDS011;20779;55.596;37.538;2022-07-29T05:02:34;9.40;;;1.40;;
34535;SDS011;20779;55.596;37.538;2022-07-29T05:05:01;4.65;;;1.38;;
34535;SDS011;20779;55.596;37.538;2022-07-29T05:07:28;2.88;;;1.10;;
34535;SDS011;20779;55.596;37.538;2022-07-29T05:09:55;3.97;;;1.27;;
34535;SDS011;20779;55.596;37.538;2022-07-29T05:12:22;2.70;;;1.23;;
34535;SDS011;20779;55.596;37.538;2022-07-29T05:14:49;6.47;;;1.90;;
34535;SDS011;20779;55.596;37.538;2022-07-29T05:17:16;3.65;;;1.80;;
34535;SDS011;20779;55.596;37.538;2022-07-29T05:19:43;3.53;;;1.30;;
34535;SDS011;20779;55.596;37.538;2022-07-29T05:22:09;7.32;;;1.48;;
34535;SDS011;20779;55.596;37.538;2022-07-29T05:24:36;3.70;;;1.48;;
34535;SDS011;20779;55.596;37.538;2022-07-29T05:27:02;2.58;;;1.20;;
34535;SDS011;20779;55.596;37.538;2022-07-29T05:29:29;2.92;;;1.38;;
34535;SDS011;20779;55.596;37.538;2022-07-29T05:31:55;3.70;;;1.35;;
34535;SDS011;20779;55.596;37.538;2022-07-29T05:34:22;3.45;;;1.08;;
34535;SDS011;20779;55.596;37.538;2022-07-29T05:36:50;5.97;;;1.13;;
34535;SDS011;20779;55.596;37.538;2022-07-29T05:39:16;3.92;;;1.65;;
34535;SDS011;20779;55.596;37.538;2022-07-29T05:41:42;11.45;;;1.45;;
34535;SDS011;20779;55.596;37.538;2022-07-29T05:44:09;6.80;;;1.52;;
34535;SDS011;20779;55.596;37.538;2022-07-29T05:46:36;2.58;;;1.30;;
34535;SDS011;20779;55.596;37.538;2022-07-29T05:49:03;3.70;;;1.23;;
34535;SDS011;20779;55.596;37.538;2022-07-29T05:51:29;3.25;;;1.10;;
34535;SDS011;20779;55.596;37.538;2022-07-29T05:53:55;4.65;;;1.30;;
34535;SDS011;20779;55.596;37.538;2022-07-29T05:56:22;2.35;;;0.80;;
34535;SDS011;20779;55.596;37.538;2022-07-29T05:58:48;5.60;;;1.08;;
34535;SDS011;20779;55.596;37.538;2022-07-29T06:01:15;2.33;;;1.00;;
34535;SDS011;20779;55.596;37.538;2022-07-29T06:03:41;2.03;;;0.93;;
34535;SDS011;20779;55.596;37.538;2022-07-29T06:06:08;3.35;;;1.00;;
34535;SDS011;20779;55.596;37.538;2022-07-29T06:08:35;5.10;;;1.20;;
34535;SDS011;20779;55.596;37.538;2022-07-29T06:11:03;6.50;;;1.60;;
34535;SDS011;20779;55.596;37.538;2022-07-29T06:13:30;2.70;;;1.20;;
34535;SDS011;20779;55.596;37.538;2022-07-29T06:15:56;4.80;;;1.17;;
34535;SDS011;20779;55.596;37.538;2022-07-29T06:18:22;1.10;;;0.70;;
34535;SDS011;20779;55.596;37.538;2022-07-29T06:20:52;5.53;;;1.00;;
34535;SDS011;20779;55.596;37.538;2022-07-29T06:23:19;2.88;;;1.10;;
34535;SDS011;20779;55.596;37.538;2022-07-29T06:25:46;3.80;;;1.10;;
34535;SDS011;20779;55.596;37.538;2022-07-29T06:28:13;5.18;;;1.05;;
34535;SDS011;20779;55.596;37.538;2022-07-29T06:30:40;8.52;;;2.97;;
34535;SDS011;20779;55.596;37.538;2022-07-29T06:33:06;2.58;;;1.08;;
34535;SDS011;20779;55.596;37.538;2022-07-29T06:35:33;2.22;;;0.80;;
34535;SDS011;20779;55.596;37.538;2022-07-29T06:38:04;2.90;;;1.00;;
34535;SDS011;20779;55.596;37.538;2022-07-29T06:40:30;3.85;;;1.10;;
34535;SDS011;20779;55.596;37.538;2022-07-29T06:43:15;11.20;;;2.15;;
34535;SDS011;20779;55.596;37.538;2022-07-29T06:45:43;5.65;;;1.40;;
34535;SDS011;20779;55.596;37.538;2022-07-29T06:48:09;1.80;;;0.90;;
34535;SDS011;20779;55.596;37.538;2022-07-29T06:50:36;2.45;;;0.95;;
34535;SDS011;20779;55.596;37.538;2022-07-29T06:53:02;1.70;;;1.00;;
34535;SDS011;20779;55.596;37.538;2022-07-29T06:55:28;2.30;;;1.00;;
34535;SDS011;20779;55.596;37.538;2022-07-29T06:57:55;4.75;;;1.00;;
34535;SDS011;20779;55.596;37.538;2022-07-29T07:00:21;2.00;;;0.80;;
34535;SDS011;20779;55.596;37.538;2022-07-29T07:02:47;3.83;;;1.30;;
34535;SDS011;20779;55.596;37.538;2022-07-29T07:05:14;3.50;;;1.20;;
34535;SDS011;20779;55.596;37.538;2022-07-29T07:07:40;2.58;;;0.98;;
34535;SDS011;20779;55.596;37.538;2022-07-29T07:10:07;5.07;;;1.58;;
34535;SDS011;20779;55.596;37.538;2022-07-29T07:12:33;3.50;;;1.30;;
34535;SDS011;20779;55.596;37.538;2022-07-29T07:14:59;3.05;;;1.15;;
34535;SDS011;20779;55.596;37.538;2022-07-29T07:17:26;4.15;;;1.38;;
34535;SDS011;20779;55.596;37.538;2022-07-29T07:19:52;7.50;;;1.40;;
34535;SDS011;20779;55.596;37.538;2022-07-29T07:22:19;3.97;;;0.70;;
34535;SDS011;20779;55.596;37.538;2022-07-29T07:24:45;7.65;;;1.60;;
34535;SDS011;20779;55.596;37.538;2022-07-29T07:27:12;15.48;;;3.20;;
34535;SDS011;20779;55.596;37.538;2022-07-29T07:29:38;11.95;;;1.10;;
34535;SDS011;20779;55.596;37.538;2022-07-29T07:32:06;1.83;;;1.10;;
34535;SDS011;20779;55.596;37.538;2022-07-29T07:34:33;3.83;;;0.85;;
34535;SDS011;20779;55.596;37.538;2022-07-29T07:36:59;3.60;;;1.23;;
34535;SDS011;20779;55.596;37.538;2022-07-29T07:39:26;3.13;;;1.00;;
34535;SDS011;20779;55.596;37.538;2022-07-29T07:41:52;5.90;;;1.10;;
34535;SDS011;20779;55.596;37.538;2022-07-29T07:44:18;2.63;;;1.08;;
34535;SDS011;20779;55.596;37.538;2022-07-29T07:46:45;3.42;;;1.00;;
34535;SDS011;20779;55.596;37.538;2022-07-29T07:49:11;3.80;;;1.00;;
34535;SDS011;20779;55.596;37.538;2022-07-29T07:51:37;3.20;;;1.02;;
34535;SDS011;20779;55.596;37.538;2022-07-29T07:54:04;2.53;;;1.05;;
34535;SDS011;20779;55.596;37.538;2022-07-29T07:56:31;1.88;;;0.80;;
34535;SDS011;20779;55.596;37.538;2022-07-29T07:58:57;3.13;;;1.17;;
34535;SDS011;20779;55.596;37.538;2022-07-29T08:01:23;3.03;;;1.25;;
34535;SDS011;20779;55.596;37.538;2022-07-29T08:03:50;4.28;;;1.20;;
34535;SDS011;20779;55.596;37.538;2022-07-29T08:06:16;5.28;;;1.00;;
34535;SDS011;20779;55.596;37.538;2022-07-29T08:08:43;3.13;;;1.30;;
34535;SDS011;20779;55.596;37.538;2022-07-29T08:11:09;2.65;;;0.90;;
34535;SDS011;20779;55.596;37.538;2022-07-29T08:13:36;9.10;;;0.98;;
34535;SDS011;20779;55.596;37.538;2022-07-29T08:16:03;3.50;;;0.90;;
34535;SDS011;20779;55.596;37.538;2022-07-29T08:18:37;3.22;;;0.82;;
34535;SDS011;20779;55.596;37.538;2022-07-29T08:21:06;3.03;;;0.93;;
34535;SDS011;20779;55.596;37.538;2022-07-29T08:23:32;1.35;;;0.73;;
34535;SDS011;20779;55.596;37.538;2022-07-29T08:26:10;2.50;;;1.00;;
34535;SDS011;20779;55.596;37.538;2022-07-29T08:28:38;1.25;;;0.80;;
34535;SDS011;20779;55.596;37.538;2022-07-29T08:31:09;2.88;;;0.90;;
34535;SDS011;20779;55.596;37.538;2022-07-29T08:33:36;3.30;;;1.02;;
34535;SDS011;20779;55.596;37.538;2022-07-29T08:36:03;2.63;;;0.90;;
34535;SDS011;20779;55.596;37.538;2022-07-29T08:38:30;3.50;;;0.75;;
34535;SDS011;20779;55.596;37.538;2022-07-29T08:40:57;4.85;;;0.93;;
34535;SDS011;20779;55.596;37.538;2022-07-29T08:43:26;4.18;;;0.80;;
34535;SDS011;20779;55.596;37.538;2022-07-29T08:45:54;1.40;;;0.60;;
34535;SDS011;20779;55.596;37.538;2022-07-29T08:48:21;4.35;;;1.10;;
34535;SDS011;20779;55.596;37.538;2022-07-29T08:50:53;3.28;;;1.38;;
34535;SDS011;20779;55.596;37.538;2022-07-29T08:53:21;2.50;;;0.73;;
34535;SDS011;20779;55.596;37.538;2022-07-29T08:55:51;3.65;;;0.90;;
34535;SDS011;20779;55.596;37.538;2022-07-29T08:58:19;4.70;;;1.90;;
34535;SDS011;20779;55.596;37.538;2022-07-29T09:00:50;2.53;;;0.88;;
34535;SDS011;20779;55.596;37.538;2022-07-29T09:03:20;2.85;;;1.08;;
34535;SDS011;20779;55.596;37.538;2022-07-29T09:05:49;1.00;;;0.65;;
34535;SDS011;20779;55.596;37.538;2022-07-29T09:08:17;3.38;;;1.08;;
34535;SDS011;20779;55.596;37.538;2022-07-29T09:10:43;3.15;;;0.90;;
34535;SDS011;20779;55.596;37.538;2022-07-29T09:13:10;3.38;;;1.10;;
34535;SDS011;20779;55.596;37.538;2022-07-29T09:15:37;2.03;;;0.90;;
34535;SDS011;20779;55.596;37.538;2022-07-29T09:18:03;5.05;;;0.85;;
34535;SDS011;20779;55.596;37.538;2022-07-29T09:20:29;1.80;;;0.80;;
34535;SDS011;20779;55.596;37.538;2022-07-29T09:23:14;4.78;;;1.98;;
34535;SDS011;20779;55.596;37.538;2022-07-29T09:25:41;6.47;;;1.38;;
34535;SDS011;20779;55.596;37.538;2022-07-29T09:28:11;2.92;;;1.42;;
34535;SDS011;20779;55.596;37.538;2022-07-29T09:33:24;1.40;;;1.00;;
34535;SDS011;20779;55.596;37.538;2022-07-29T09:36:02;2.47;;;0.70;;
34535;SDS011;20779;55.596;37.538;2022-07-29T09:38:30;4.33;;;0.87;;
34535;SDS011;20779;55.596;37.538;2022-07-29T09:40:58;3.35;;;0.77;;
34535;SDS011;20779;55.596;37.538;2022-07-29T09:43:27;2.75;;;0.77;;
34535;SDS011;20779;55.596;37.538;2022-07-29T09:45:53;2.70;;;0.80;;
34535;SDS011;20779;55.596;37.538;2022-07-29T09:48:24;3.47;;;0.82;;
34535;SDS011;20779;55.596;37.538;2022-07-29T09:50:51;2.00;;;0.73;;
34535;SDS011;20779;55.596;37.538;2022-07-29T09:55:58;5.00;;;0.60;;
34535;SDS011;20779;55.596;37.538;2022-07-29T09:58:24;2.33;;;0.80;;
34535;SDS011;20779;55.596;37.538;2022-07-29T10:00:52;2.70;;;0.82;;
34535;SDS011;20779;55.596;37.538;2022-07-29T10:03:20;2.40;;;0.60;;
34535;SDS011;20779;55.596;37.538;2022-07-29T10:06:03;5.78;;;0.70;;
34535;SDS011;20779;55.596;37.538;2022-07-29T10:08:35;2.30;;;1.10;;
34535;SDS011;20779;55.596;37.538;2022-07-29T10:11:09;0.95;;;0.85;;
34535;SDS011;20779;55.596;37.538;2022-07-29T10:13:47;2.63;;;1.38;;
34535;SDS011;20779;55.596;37.538;2022-07-29T10:16:14;5.07;;;0.93;;
34535;SDS011;20779;55.596;37.538;2022-07-29T10:18:42;1.85;;;1.10;;
34535;SDS011;20779;55.596;37.538;2022-07-29T10:21:09;1.90;;;0.80;;
34535;SDS011;20779;55.596;37.538;2022-07-29T10:23:36;4.57;;;0.80;;
34535;SDS011;20779;55.596;37.538;2022-07-29T10:26:03;4.03;;;2.28;;
34535;SDS011;20779;55.596;37.538;2022-07-29T10:28:30;1.60;;;0.90;;
34535;SDS011;20779;55.596;37.538;2022-07-29T10:31:01;2.85;;;0.90;;
34535;SDS011;20779;55.596;37.538;2022-07-29T10:36:32;2.63;;;0.73;;
34535;SDS011;20779;55.596;37.538;2022-07-29T10:42:21;2.83;;;1.30;;
34535;SDS011;20779;55.596;37.538;2022-07-29T10:44:50;2.38;;;0.88;;
34535;SDS011;20779;55.596;37.538;2022-07-29T10:47:25;2.35;;;0.65;;
34535;SDS011;20779;55.596;37.538;2022-07-29T10:52:24;2.58;;;0.93;;
34535;SDS011;20779;55.596;37.538;2022-07-29T10:55:35;1.92;;;0.60;;
34535;SDS011;20779;55.596;37.538;2022-07-29T10:58:11;1.70;;;0.75;;
34535;SDS011;20779;55.596;37.538;2022-07-29T11:00:49;2.33;;;1.17;;
34535;SDS011;20779;55.596;37.538;2022-07-29T11:06:10;3.40;;;0.82;;
34535;SDS011;20779;55.596;37.538;2022-07-29T11:08:37;2.20;;;0.80;;
34535;SDS011;20779;55.596;37.538;2022-07-29T11:16:16;2.15;;;0.85;;
34535;SDS011;20779;55.596;37.538;2022-07-29T11:19:18;3.15;;;0.80;;
34535;SDS011;20779;55.596;37.538;2022-07-29T11:21:37;4.00;;;0.75;;
34535;SDS011;20779;55.596;37.538;2022-07-29T11:24:12;4.88;;;0.80;;
34535;SDS011;20779;55.596;37.538;2022-07-29T11:26:39;1.75;;;0.57;;
34535;SDS011;20779;55.596;37.538;2022-07-29T11:29:13;1.83;;;0.77;;
34535;SDS011;20779;55.596;37.538;2022-07-29T11:31:46;2.65;;;0.80;;
34535;SDS011;20779;55.596;37.538;2022-07-29T11:39:38;1.80;;;0.70;;
34535;SDS011;20779;55.596;37.538;2022-07-29T11:44:58;2.03;;;0.90;;
34535;SDS011;20779;55.596;37.538;2022-07-29T11:47:31;2.17;;;0.90;;
34535;SDS011;20779;55.596;37.538;2022-07-29T11:50:00;3.67;;;0.90;;
34535;SDS011;20779;55.596;37.538;2022-07-29T11:52:33;4.18;;;1.05;;
34535;SDS011;20779;55.596;37.538;2022-07-29T11:55:09;1.90;;;0.55;;
34535;SDS011;20779;55.596;37.538;2022-07-29T11:57:51;4.22;;;0.60;;
34535;SDS011;20779;55.596;37.538;2022-07-29T12:00:33;1.75;;;0.80;;
34535;SDS011;20779;55.596;37.538;2022-07-29T12:03:09;5.10;;;1.13;;
34535;SDS011;20779;55.596;37.538;2022-07-29T12:08:05;4.65;;;0.60;;
34535;SDS011;20779;55.596;37.538;2022-07-29T12:10:37;1.45;;;0.60;;
34535;SDS011;20779;55.596;37.538;2022-07-29T12:13:04;2.13;;;0.85;;
34535;SDS011;20779;55.596;37.538;2022-07-29T12:15:31;2.13;;;0.75;;
34535;SDS011;20779;55.596;37.538;2022-07-29T12:17:58;3.45;;;0.80;;
34535;SDS011;20779;55.596;37.538;2022-07-29T12:20:35;2.67;;;1.10;;
34535;SDS011;20779;55.596;37.538;2022-07-29T12:23:04;2.85;;;0.80;;
34535;SDS011;20779;55.596;37.538;2022-07-29T12:25:33;9.98;;;0.90;;
34535;SDS011;20779;55.596;37.538;2022-07-29T12:28:06;3.80;;;0.70;;
34535;SDS011;20779;55.596;37.538;2022-07-29T12:35:49;3.40;;;0.60;;
34535;SDS011;20779;55.596;37.538;2022-07-29T12:38:18;3.28;;;0.70;;
34535;SDS011;20779;55.596;37.538;2022-07-29T12:40:46;3.53;;;0.82;;
34535;SDS011;20779;55.596;37.538;2022-07-29T12:43:15;1.58;;;0.68;;
34535;SDS011;20779;55.596;37.538;2022-07-29T12:45:44;1.48;;;0.70;;
34535;SDS011;20779;55.596;37.538;2022-07-29T12:48:15;3.58;;;0.80;;
34535;SDS011;20779;55.596;37.538;2022-07-29T12:50:56;7.25;;;0.93;;
34535;SDS011;20779;55.596;37.538;2022-07-29T12:53:27;2.90;;;0.80;;
34535;SDS011;20779;55.596;37.538;2022-07-29T12:55:54;2.30;;;0.70;;
34535;SDS011;20779;55.596;37.538;2022-07-29T12:58:40;1.42;;;0.77;;
34535;SDS011;20779;55.596;37.538;2022-07-29T13:01:11;2.92;;;0.60;;
34535;SDS011;20779;55.596;37.538;2022-07-29T13:03:54;5.05;;;2.50;;
34535;SDS011;20779;55.596;37.538;2022-07-29T13:06:30;6.63;;;1.15;;
34535;SDS011;20779;55.596;37.538;2022-07-29T13:11:41;2.10;;;0.75;;
34535;SDS011;20779;55.596;37.538;2022-07-29T13:14:12;2.15;;;0.75;;
34535;SDS011;20779;55.596;37.538;2022-07-29T13:17:03;1.60;;;0.75;;
34535;SDS011;20779;55.596;37.538;2022-07-29T13:20:04;2.15;;;1.05;;
34535;SDS011;20779;55.596;37.538;2022-07-29T13:25:01;3.90;;;1.10;;
34535;SDS011;20779;55.596;37.538;2022-07-29T13:27:31;2.72;;;1.00;;
34535;SDS011;20779;55.596;37.538;2022-07-29T13:30:00;3.88;;;0.90;;
34535;SDS011;20779;55.596;37.538;2022-07-29T13:34:58;3.03;;;1.00;;
34535;SDS011;20779;55.596;37.538;2022-07-29T13:37:29;4.05;;;1.08;;
34535;SDS011;20779;55.596;37.538;2022-07-29T13:39:58;2.63;;;0.88;;
34535;SDS011;20779;55.596;37.538;2022-07-29T13:42:24;1.10;;;0.88;;
34535;SDS011;20779;55.596;37.538;2022-07-29T13:44:52;2.60;;;0.80;;
34535;SDS011;20779;55.596;37.538;2022-07-29T13:47:19;4.90;;;1.08;;
34535;SDS011;20779;55.596;37.538;2022-07-29T13:49:46;4.20;;;1.30;;
34535;SDS011;20779;55.596;37.538;2022-07-29T13:52:13;5.85;;;1.10;;
34535;SDS011;20779;55.596;37.538;2022-07-29T13:54:40;2.03;;;0.88;;
34535;SDS011;20779;55.596;37.538;2022-07-29T13:57:08;2.47;;;1.15;;
34535;SDS011;20779;55.596;37.538;2022-07-29T13:59:41;4.55;;;0.82;;
34535;SDS011;20779;55.596;37.538;2022-07-29T14:02:09;4.20;;;0.98;;
34535;SDS011;20779;55.596;37.538;2022-07-29T14:04:37;3.70;;;1.10;;
34535;SDS011;20779;55.596;37.538;2022-07-29T14:07:04;5.53;;;1.40;;
34535;SDS011;20779;55.596;37.538;2022-07-29T14:09:32;6.10;;;1.38;;
34535;SDS011;20779;55.596;37.538;2022-07-29T14:11:59;3.10;;;1.30;;
34535;SDS011;20779;55.596;37.538;2022-07-29T14:14:26;3.05;;;1.25;;
34535;SDS011;20779;55.596;37.538;2022-07-29T14:16:53;4.60;;;0.85;;
34535;SDS011;20779;55.596;37.538;2022-07-29T14:19:19;3.53;;;0.80;;
34535;SDS011;20779;55.596;37.538;2022-07-29T14:21:46;3.05;;;0.93;;
34535;SDS011;20779;55.596;37.538;2022-07-29T14:24:12;2.13;;;0.80;;
34535;SDS011;20779;55.596;37.538;2022-07-29T14:26:39;3.72;;;0.85;;
34535;SDS011;20779;55.596;37.538;2022-07-29T14:29:05;3.05;;;1.27;;
34535;SDS011;20779;55.596;37.538;2022-07-29T14:31:32;2.92;;;1.17;;
34535;SDS011;20779;55.596;37.538;2022-07-29T14:33:58;2.67;;;1.10;;
34535;SDS011;20779;55.596;37.538;2022-07-29T14:36:25;2.78;;;1.00;;
34535;SDS011;20779;55.596;37.538;2022-07-29T14:38:52;4.55;;;1.10;;
34535;SDS011;20779;55.596;37.538;2022-07-29T14:41:19;3.85;;;1.02;;
34535;SDS011;20779;55.596;37.538;2022-07-29T14:43:46;2.47;;;0.85;;
34535;SDS011;20779;55.596;37.538;2022-07-29T14:46:13;3.17;;;1.02;;
34535;SDS011;20779;55.596;37.538;2022-07-29T14:48:40;4.78;;;1.17;;
34535;SDS011;20779;55.596;37.538;2022-07-29T14:51:06;7.85;;;0.95;;
34535;SDS011;20779;55.596;37.538;2022-07-29T14:53:32;4.63;;;1.30;;
34535;SDS011;20779;55.596;37.538;2022-07-29T14:55:58;4.90;;;1.00;;
34535;SDS011;20779;55.596;37.538;2022-07-29T14:58:25;8.30;;;1.10;;
34535;SDS011;20779;55.596;37.538;2022-07-29T15:00:51;4.28;;;1.10;;
34535;SDS011;20779;55.596;37.538;2022-07-29T15:03:20;5.25;;;0.82;;
34535;SDS011;20779;55.596;37.538;2022-07-29T15:05:46;8.35;;;1.20;;
34535;SDS011;20779;55.596;37.538;2022-07-29T15:08:12;4.97;;;1.20;;
34535;SDS011;20779;55.596;37.538;2022-07-29T15:10:39;4.13;;;1.15;;
34535;SDS011;20779;55.596;37.538;2022-07-29T15:13:05;1.98;;;0.95;;
34535;SDS011;20779;55.596;37.538;2022-07-29T15:15:32;5.03;;;1.15;;
34535;SDS011;20779;55.596;37.538;2022-07-29T15:17:58;2.58;;;1.02;;
34535;SDS011;20779;55.596;37.538;2022-07-29T15:20:25;2.65;;;0.88;;
34535;SDS011;20779;55.596;37.538;2022-07-29T15:22:52;2.50;;;0.80;;
34535;SDS011;20779;55.596;37.538;2022-07-29T15:25:23;3.08;;;1.20;;
34535;SDS011;20779;55.596;37.538;2022-07-29T15:27:51;4.95;;;1.23;;
34535;SDS011;20779;55.596;37.538;2022-07-29T15:30:17;5.03;;;1.27;;
34535;SDS011;20779;55.596;37.538;2022-07-29T15:32:44;2.08;;;0.98;;
34535;SDS011;20779;55.596;37.538;2022-07-29T15:35:11;5.65;;;1.17;;
34535;SDS011;20779;55.596;37.538;2022-07-29T15:37:37;3.05;;;1.02;;
34535;SDS011;20779;55.596;37.538;2022-07-29T15:40:04;1.92;;;0.93;;
34535;SDS011;20779;55.596;37.538;2022-07-29T15:42:32;3.67;;;1.17;;